sensor_id;sensor_type;location;lat;lon;timestamp;pressure;altitude;pressure_sealevel;temperature;humidity
71907;BME280;59781;52.090;5.030;2023-05-14T00:02:17;102013.03;;;13.98;100.00
71907;BME280;59781;52.090;5.030;2023-05-14T00:04:43;102017.00;;;13.86;100.00
71907;BME280;59781;52.090;5.030;2023-05-14T00:07:09;102010.31;;;13.98;100.00
71907;BME280;59781;52.090;5.030;2023-05-14T00:09:35;101997.22;;;13.86;100.00
71907;BME280;59781;52.090;5.030;2023-05-14T00:12:01;102005.00;;;13.81;100.00
71907;BME280;59781;52.090;5.030;2023-05-14T00:14:27;102000.94;;;13.76;100.00
71907;BME280;59781;52.090;5.030;2023-05-14T00:16:53;102001.28;;;13.82;100.00
71907;BME280;59781;52.090;5.030;2023-05-14T00:19:19;101996.88;;;13.81;100.00
71907;BME280;59781;52.090;5.030;2023-05-14T00:21:46;101997.00;;;13.71;100.00
71907;BME280;59781;52.090;5.030;2023-05-14T00:24:12;101996.84;;;13.72;100.00
71907;BME280;59781;52.090;5.030;2023-05-14T00:26:38;101985.41;;;13.95;100.00
71907;BME280;59781;52.090;5.030;2023-05-14T00:29:03;101984.91;;;13.99;100.00
71907;BME280;59781;52.090;5.030;2023-05-14T00:31:29;101981.66;;;13.80;100.00
71907;BME280;59781;52.090;5.030;2023-05-14T00:33:55;101983.63;;;13.69;100.00
71907;BME280;59781;52.090;5.030;2023-05-14T00:36:21;101974.91;;;13.92;100.00
71907;BME280;59781;52.090;5.030;2023-05-14T00:38:48;101975.69;;;13.76;100.00
71907;BME280;59781;52.090;5.030;2023-05-14T00:41:13;101975.41;;;13.45;100.00
71907;BME280;59781;52.090;5.030;2023-05-14T00:43:40;101972.28;;;13.66;100.00
71907;BME280;59781;52.090;5.030;2023-05-14T00:46:06;101968.59;;;13.75;100.00
71907;BME280;59781;52.090;5.030;2023-05-14T00:48:32;101965.28;;;13.47;100.00
71907;BME280;59781;52.090;5.030;2023-05-14T00:50:58;101972.78;;;13.27;100.00
71907;BME280;59781;52.090;5.030;2023-05-14T00:53:25;101965.28;;;13.55;100.00
71907;BME280;59781;52.090;5.030;2023-05-14T00:55:51;101967.13;;;13.46;100.00
71907;BME280;59781;52.090;5.030;2023-05-14T00:58:17;101954.97;;;13.51;100.00
71907;BME280;59781;52.090;5.030;2023-05-14T01:00:44;101963.13;;;13.59;100.00
71907;BME280;59781;52.090;5.030;2023-05-14T01:03:10;101967.56;;;13.68;100.00
71907;BME280;59781;52.090;5.030;2023-05-14T01:11:25;101969.56;;;13.24;100.00
71907;BME280;59781;52.090;5.030;2023-05-14T01:16:44;101960.22;;;13.18;100.00
71907;BME280;59781;52.090;5.030;2023-05-14T01:19:31;101969.47;;;13.15;100.00
71907;BME280;59781;52.090;5.030;2023-05-14T01:22:01;101978.41;;;13.34;100.00
71907;BME280;59781;52.090;5.030;2023-05-14T01:24:26;101973.44;;;13.21;100.00
71907;BME280;59781;52.090;5.030;2023-05-14T01:27:03;101981.75;;;13.28;100.00
71907;BME280;59781;52.090;5.030;2023-05-14T01:29:40;101971.78;;;13.28;100.00
71907;BME280;59781;52.090;5.030;2023-05-14T01:32:12;101966.41;;;13.10;100.00
71907;BME280;59781;52.090;5.030;2023-05-14T01:34:40;101962.84;;;13.28;100.00
71907;BME280;59781;52.090;5.030;2023-05-14T01:37:09;101960.59;;;13.23;100.00
71907;BME280;59781;52.090;5.030;2023-05-14T01:39:37;101960.41;;;13.25;100.00
71907;BME280;59781;52.090;5.030;2023-05-14T01:42:06;101962.69;;;13.11;100.00
71907;BME280;59781;52.090;5.030;2023-05-14T01:44:34;101962.31;;;13.06;100.00
71907;BME280;59781;52.090;5.030;2023-05-14T01:47:00;101968.91;;;13.04;100.00
71907;BME280;59781;52.090;5.030;2023-05-14T01:49:26;101958.97;;;13.12;100.00
71907;BME280;59781;52.090;5.030;2023-05-14T01:51:52;101957.22;;;13.21;100.00
71907;BME280;59781;52.090;5.030;2023-05-14T01:54:17;101957.63;;;13.08;100.00
71907;BME280;59781;52.090;5.030;2023-05-14T01:56:43;101956.66;;;13.17;100.00
71907;BME280;59781;52.090;5.030;2023-05-14T01:59:09;101946.97;;;13.15;100.00
71907;BME280;59781;52.090;5.030;2023-05-14T02:01:35;101951.00;;;13.29;100.00
71907;BME280;59781;52.090;5.030;2023-05-14T02:04:01;101944.63;;;13.12;100.00
71907;BME280;59781;52.090;5.030;2023-05-14T02:06:29;101939.38;;;13.10;100.00
71907;BME280;59781;52.090;5.030;2023-05-14T02:08:56;101937.97;;;13.06;100.00
71907;BME280;59781;52.090;5.030;2023-05-14T02:11:22;101932.00;;;13.20;100.00
71907;BME280;59781;52.090;5.030;2023-05-14T02:13:47;101935.28;;;13.06;100.00
71907;BME280;59781;52.090;5.030;2023-05-14T02:16:13;101929.06;;;13.14;100.00
71907;BME280;59781;52.090;5.030;2023-05-14T02:18:39;101935.75;;;13.02;100.00
71907;BME280;59781;52.090;5.030;2023-05-14T02:21:05;101933.91;;;13.02;100.00
71907;BME280;59781;52.090;5.030;2023-05-14T02:23:30;101936.72;;;13.18;100.00
71907;BME280;59781;52.090;5.030;2023-05-14T02:25:56;101937.59;;;13.27;100.00
71907;BME280;59781;52.090;5.030;2023-05-14T02:28:22;101939.84;;;13.06;100.00
71907;BME280;59781;52.090;5.030;2023-05-14T02:30:47;101938.63;;;13.26;100.00
71907;BME280;59781;52.090;5.030;2023-05-14T02:33:13;101933.53;;;13.23;100.00
71907;BME280;59781;52.090;5.030;2023-05-14T02:35:39;101937.78;;;13.00;100.00
71907;BME280;59781;52.090;5.030;2023-05-14T02:38:05;101936.72;;;12.92;100.00
71907;BME280;59781;52.090;5.030;2023-05-14T02:40:30;101934.25;;;13.07;100.00
71907;BME280;59781;52.090;5.030;2023-05-14T02:42:56;101935.31;;;12.80;100.00
71907;BME280;59781;52.090;5.030;2023-05-14T02:45:22;101934.19;;;12.91;100.00
71907;BME280;59781;52.090;5.030;2023-05-14T02:47:47;101928.97;;;12.98;100.00
71907;BME280;59781;52.090;5.030;2023-05-14T02:50:14;101934.34;;;12.89;100.00
71907;BME280;59781;52.090;5.030;2023-05-14T02:52:40;101928.59;;;12.92;100.00
71907;BME280;59781;52.090;5.030;2023-05-14T02:55:06;101925.78;;;12.76;100.00
71907;BME280;59781;52.090;5.030;2023-05-14T02:57:32;101923.69;;;12.62;100.00
71907;BME280;59781;52.090;5.030;2023-05-14T02:59:58;101928.44;;;12.68;100.00
71907;BME280;59781;52.090;5.030;2023-05-14T03:02:23;101920.72;;;12.73;100.00
71907;BME280;59781;52.090;5.030;2023-05-14T03:04:49;101929.50;;;12.75;100.00
71907;BME280;59781;52.090;5.030;2023-05-14T03:07:15;101917.50;;;12.70;100.00
71907;BME280;59781;52.090;5.030;2023-05-14T03:09:41;101924.22;;;12.48;100.00
71907;BME280;59781;52.090;5.030;2023-05-14T03:12:07;101925.72;;;12.42;100.00
71907;BME280;59781;52.090;5.030;2023-05-14T03:14:32;101927.94;;;12.47;100.00
71907;BME280;59781;52.090;5.030;2023-05-14T03:16:58;101928.25;;;12.61;100.00
71907;BME280;59781;52.090;5.030;2023-05-14T03:19:24;101921.94;;;12.79;100.00
71907;BME280;59781;52.090;5.030;2023-05-14T03:21:50;101925.16;;;12.56;100.00
71907;BME280;59781;52.090;5.030;2023-05-14T03:24:16;101926.81;;;12.49;100.00
71907;BME280;59781;52.090;5.030;2023-05-14T03:26:43;101923.19;;;12.41;100.00
71907;BME280;59781;52.090;5.030;2023-05-14T03:29:08;101926.19;;;12.81;100.00
71907;BME280;59781;52.090;5.030;2023-05-14T03:31:35;101927.56;;;12.59;100.00
71907;BME280;59781;52.090;5.030;2023-05-14T03:34:01;101921.69;;;12.46;100.00
71907;BME280;59781;52.090;5.030;2023-05-14T03:36:27;101927.03;;;12.82;100.00
71907;BME280;59781;52.090;5.030;2023-05-14T03:38:52;101922.75;;;12.71;100.00
71907;BME280;59781;52.090;5.030;2023-05-14T03:41:19;101916.56;;;12.87;100.00
71907;BME280;59781;52.090;5.030;2023-05-14T03:43:46;101912.50;;;12.83;100.00
71907;BME280;59781;52.090;5.030;2023-05-14T03:46:12;101917.16;;;12.73;100.00
71907;BME280;59781;52.090;5.030;2023-05-14T03:48:37;101907.31;;;12.63;100.00
71907;BME280;59781;52.090;5.030;2023-05-14T03:51:03;101914.13;;;12.76;100.00
71907;BME280;59781;52.090;5.030;2023-05-14T03:53:29;101903.03;;;12.79;100.00
71907;BME280;59781;52.090;5.030;2023-05-14T03:55:55;101900.03;;;12.90;100.00
71907;BME280;59781;52.090;5.030;2023-05-14T03:58:21;101900.31;;;12.79;100.00
71907;BME280;59781;52.090;5.030;2023-05-14T04:00:46;101900.88;;;12.64;100.00
71907;BME280;59781;52.090;5.030;2023-05-14T04:03:12;101902.59;;;12.91;100.00
71907;BME280;59781;52.090;5.030;2023-05-14T04:05:38;101904.94;;;12.60;100.00
71907;BME280;59781;52.090;5.030;2023-05-14T04:08:04;101899.19;;;12.63;100.00
71907;BME280;59781;52.090;5.030;2023-05-14T04:10:30;101905.00;;;12.69;100.00
71907;BME280;59781;52.090;5.030;2023-05-14T04:12:58;101900.09;;;12.72;100.00
71907;BME280;59781;52.090;5.030;2023-05-14T04:15:28;101904.16;;;12.76;100.00
71907;BME280;59781;52.090;5.030;2023-05-14T04:17:54;101903.09;;;12.95;100.00
71907;BME280;59781;52.090;5.030;2023-05-14T04:20:19;101901.69;;;12.83;100.00
71907;BME280;59781;52.090;5.030;2023-05-14T04:22:45;101906.25;;;12.82;100.00
71907;BME280;59781;52.090;5.030;2023-05-14T04:25:11;101919.13;;;12.88;100.00
71907;BME280;59781;52.090;5.030;2023-05-14T04:27:36;101910.03;;;12.98;100.00
71907;BME280;59781;52.090;5.030;2023-05-14T04:30:03;101909.84;;;12.65;100.00
71907;BME280;59781;52.090;5.030;2023-05-14T04:32:29;101907.88;;;12.75;100.00
71907;BME280;59781;52.090;5.030;2023-05-14T04:34:54;101903.38;;;12.58;100.00
71907;BME280;59781;52.090;5.030;2023-05-14T04:37:20;101905.41;;;12.38;100.00
71907;BME280;59781;52.090;5.030;2023-05-14T04:39:46;101915.41;;;12.20;100.00
71907;BME280;59781;52.090;5.030;2023-05-14T04:42:11;101917.16;;;12.29;100.00
71907;BME280;59781;52.090;5.030;2023-05-14T04:44:37;101911.63;;;12.30;100.00
71907;BME280;59781;52.090;5.030;2023-05-14T04:47:03;101918.91;;;12.38;100.00
71907;BME280;59781;52.090;5.030;2023-05-14T04:49:31;101913.44;;;12.48;100.00
71907;BME280;59781;52.090;5.030;2023-05-14T04:51:57;101907.69;;;12.69;100.00
71907;BME280;59781;52.090;5.030;2023-05-14T04:54:23;101912.13;;;12.52;100.00
71907;BME280;59781;52.090;5.030;2023-05-14T04:56:49;101905.47;;;12.46;100.00
71907;BME280;59781;52.090;5.030;2023-05-14T04:59:15;101899.56;;;12.43;100.00
71907;BME280;59781;52.090;5.030;2023-05-14T05:01:41;101904.03;;;12.52;100.00
71907;BME280;59781;52.090;5.030;2023-05-14T05:04:06;101901.50;;;12.58;100.00
71907;BME280;59781;52.090;5.030;2023-05-14T05:06:32;101907.81;;;12.93;100.00
71907;BME280;59781;52.090;5.030;2023-05-14T05:08:58;101902.94;;;12.97;100.00
71907;BME280;59781;52.090;5.030;2023-05-14T05:11:23;101903.44;;;12.92;100.00
71907;BME280;59781;52.090;5.030;2023-05-14T05:13:49;101912.78;;;13.32;100.00
71907;BME280;59781;52.090;5.030;2023-05-14T05:16:15;101912.31;;;13.44;100.00
71907;BME280;59781;52.090;5.030;2023-05-14T05:18:40;101914.84;;;13.46;100.00
71907;BME280;59781;52.090;5.030;2023-05-14T05:21:06;101905.56;;;13.40;100.00
71907;BME280;59781;52.090;5.030;2023-05-14T05:23:32;101918.13;;;13.66;100.00
71907;BME280;59781;52.090;5.030;2023-05-14T05:25:57;101906.94;;;13.53;100.00
71907;BME280;59781;52.090;5.030;2023-05-14T05:28:23;101911.97;;;13.39;100.00
71907;BME280;59781;52.090;5.030;2023-05-14T05:30:49;101912.81;;;13.40;100.00
71907;BME280;59781;52.090;5.030;2023-05-14T05:33:14;101912.38;;;13.61;100.00
71907;BME280;59781;52.090;5.030;2023-05-14T05:35:40;101903.13;;;13.80;100.00
71907;BME280;59781;52.090;5.030;2023-05-14T05:38:07;101901.44;;;13.87;100.00
71907;BME280;59781;52.090;5.030;2023-05-14T05:40:33;101897.22;;;13.92;100.00
71907;BME280;59781;52.090;5.030;2023-05-14T05:42:58;101900.22;;;13.73;100.00
71907;BME280;59781;52.090;5.030;2023-05-14T05:45:24;101898.41;;;13.90;100.00
71907;BME280;59781;52.090;5.030;2023-05-14T05:47:50;101898.25;;;14.07;100.00
71907;BME280;59781;52.090;5.030;2023-05-14T05:50:16;101903.50;;;14.25;100.00
71907;BME280;59781;52.090;5.030;2023-05-14T05:52:42;101900.09;;;14.23;100.00
71907;BME280;59781;52.090;5.030;2023-05-14T05:55:08;101901.63;;;14.01;100.00
71907;BME280;59781;52.090;5.030;2023-05-14T05:57:34;101908.56;;;14.04;100.00
71907;BME280;59781;52.090;5.030;2023-05-14T05:59:59;101913.66;;;14.23;100.00
71907;BME280;59781;52.090;5.030;2023-05-14T06:02:39;101909.59;;;14.76;100.00
71907;BME280;59781;52.090;5.030;2023-05-14T06:05:09;101910.09;;;14.80;100.00
71907;BME280;59781;52.090;5.030;2023-05-14T06:07:35;101904.53;;;14.65;100.00
71907;BME280;59781;52.090;5.030;2023-05-14T06:10:01;101916.56;;;14.38;100.00
71907;BME280;59781;52.090;5.030;2023-05-14T06:12:27;101914.00;;;14.45;100.00
71907;BME280;59781;52.090;5.030;2023-05-14T06:14:54;101907.56;;;14.13;100.00
71907;BME280;59781;52.090;5.030;2023-05-14T06:17:20;101911.28;;;14.20;100.00
71907;BME280;59781;52.090;5.030;2023-05-14T06:19:46;101913.34;;;14.26;100.00
71907;BME280;59781;52.090;5.030;2023-05-14T06:22:11;101912.31;;;14.52;100.00
71907;BME280;59781;52.090;5.030;2023-05-14T06:24:39;101921.84;;;14.48;100.00
71907;BME280;59781;52.090;5.030;2023-05-14T06:27:04;101909.75;;;14.75;100.00
71907;BME280;59781;52.090;5.030;2023-05-14T06:29:30;101913.00;;;14.54;100.00
71907;BME280;59781;52.090;5.030;2023-05-14T06:32:00;101916.06;;;14.59;100.00
71907;BME280;59781;52.090;5.030;2023-05-14T06:34:28;101919.28;;;14.46;100.00
71907;BME280;59781;52.090;5.030;2023-05-14T06:36:54;101918.06;;;14.41;100.00
71907;BME280;59781;52.090;5.030;2023-05-14T06:39:20;101918.94;;;14.49;100.00
71907;BME280;59781;52.090;5.030;2023-05-14T06:41:45;101918.28;;;14.55;100.00
71907;BME280;59781;52.090;5.030;2023-05-14T06:44:15;101920.81;;;14.49;100.00
71907;BME280;59781;52.090;5.030;2023-05-14T06:46:42;101920.44;;;14.44;100.00
71907;BME280;59781;52.090;5.030;2023-05-14T06:49:08;101918.28;;;14.47;100.00
71907;BME280;59781;52.090;5.030;2023-05-14T06:51:34;101912.94;;;14.95;100.00
71907;BME280;59781;52.090;5.030;2023-05-14T06:53:59;101912.53;;;15.14;100.00
71907;BME280;59781;52.090;5.030;2023-05-14T06:56:25;101911.59;;;15.38;100.00
71907;BME280;59781;52.090;5.030;2023-05-14T06:58:51;101907.16;;;15.84;100.00
71907;BME280;59781;52.090;5.030;2023-05-14T07:01:16;101899.00;;;16.07;100.00
71907;BME280;59781;52.090;5.030;2023-05-14T07:03:42;101899.66;;;16.09;100.00
71907;BME280;59781;52.090;5.030;2023-05-14T07:06:08;101898.13;;;16.29;100.00
71907;BME280;59781;52.090;5.030;2023-05-14T07:08:33;101889.28;;;17.03;100.00
71907;BME280;59781;52.090;5.030;2023-05-14T07:11:00;101887.47;;;17.75;100.00
71907;BME280;59781;52.090;5.030;2023-05-14T07:13:26;101889.47;;;19.15;100.00
71907;BME280;59781;52.090;5.030;2023-05-14T07:15:53;101886.47;;;19.03;100.00
71907;BME280;59781;52.090;5.030;2023-05-14T07:18:20;101886.28;;;19.53;100.00
71907;BME280;59781;52.090;5.030;2023-05-14T07:20:47;101889.56;;;19.35;100.00
71907;BME280;59781;52.090;5.030;2023-05-14T07:23:13;101900.88;;;19.25;100.00
71907;BME280;59781;52.090;5.030;2023-05-14T07:25:39;101889.31;;;19.71;100.00
71907;BME280;59781;52.090;5.030;2023-05-14T07:28:05;101879.19;;;19.65;100.00
71907;BME280;59781;52.090;5.030;2023-05-14T07:30:30;101882.78;;;19.59;100.00
71907;BME280;59781;52.090;5.030;2023-05-14T07:32:56;101880.78;;;20.33;100.00
71907;BME280;59781;52.090;5.030;2023-05-14T07:35:22;101885.59;;;19.92;100.00
71907;BME280;59781;52.090;5.030;2023-05-14T07:37:48;101887.94;;;19.40;100.00
71907;BME280;59781;52.090;5.030;2023-05-14T07:40:13;101879.19;;;19.65;100.00
71907;BME280;59781;52.090;5.030;2023-05-14T07:42:39;101874.22;;;19.34;100.00
71907;BME280;59781;52.090;5.030;2023-05-14T07:45:05;101879.84;;;19.60;100.00
71907;BME280;59781;52.090;5.030;2023-05-14T07:47:32;101881.75;;;19.18;100.00
71907;BME280;59781;52.090;5.030;2023-05-14T07:49:57;101883.09;;;19.42;100.00
71907;BME280;59781;52.090;5.030;2023-05-14T07:52:23;101882.81;;;19.24;100.00
71907;BME280;59781;52.090;5.030;2023-05-14T07:54:50;101870.00;;;19.86;100.00
71907;BME280;59781;52.090;5.030;2023-05-14T07:57:17;101868.06;;;19.60;100.00
71907;BME280;59781;52.090;5.030;2023-05-14T07:59:43;101876.81;;;19.48;100.00
71907;BME280;59781;52.090;5.030;2023-05-14T08:02:09;101870.16;;;19.64;100.00
71907;BME280;59781;52.090;5.030;2023-05-14T08:04:37;101877.38;;;19.79;100.00
71907;BME280;59781;52.090;5.030;2023-05-14T08:07:04;101880.16;;;19.44;100.00
71907;BME280;59781;52.090;5.030;2023-05-14T08:09:30;101882.28;;;19.55;100.00
71907;BME280;59781;52.090;5.030;2023-05-14T08:11:55;101884.19;;;19.55;100.00
71907;BME280;59781;52.090;5.030;2023-05-14T08:14:21;101880.81;;;19.05;100.00
71907;BME280;59781;52.090;5.030;2023-05-14T08:16:47;101875.94;;;19.41;100.00
71907;BME280;59781;52.090;5.030;2023-05-14T08:19:14;101869.03;;;20.26;100.00
71907;BME280;59781;52.090;5.030;2023-05-14T08:21:40;101866.69;;;20.30;100.00
71907;BME280;59781;52.090;5.030;2023-05-14T08:24:06;101870.06;;;20.32;100.00
71907;BME280;59781;52.090;5.030;2023-05-14T08:26:32;101864.81;;;20.44;100.00
71907;BME280;59781;52.090;5.030;2023-05-14T08:28:57;101865.59;;;20.97;100.00
71907;BME280;59781;52.090;5.030;2023-05-14T08:31:23;101863.84;;;21.67;100.00
71907;BME280;59781;52.090;5.030;2023-05-14T08:33:49;101870.03;;;21.50;100.00
71907;BME280;59781;52.090;5.030;2023-05-14T08:36:14;101868.19;;;21.43;100.00
71907;BME280;59781;52.090;5.030;2023-05-14T08:38:40;101861.91;;;21.74;100.00
71907;BME280;59781;52.090;5.030;2023-05-14T08:41:07;101862.91;;;21.80;100.00
71907;BME280;59781;52.090;5.030;2023-05-14T08:46:50;101869.72;;;22.34;100.00
71907;BME280;59781;52.090;5.030;2023-05-14T08:49:39;101855.88;;;21.53;100.00
71907;BME280;59781;52.090;5.030;2023-05-14T08:52:10;101844.13;;;22.15;100.00
71907;BME280;59781;52.090;5.030;2023-05-14T08:54:37;101851.31;;;21.78;100.00
71907;BME280;59781;52.090;5.030;2023-05-14T08:57:05;101838.06;;;21.37;100.00
71907;BME280;59781;52.090;5.030;2023-05-14T08:59:34;101845.31;;;21.94;100.00
71907;BME280;59781;52.090;5.030;2023-05-14T09:02:02;101848.09;;;22.19;100.00
71907;BME280;59781;52.090;5.030;2023-05-14T09:04:31;101847.97;;;22.57;100.00
71907;BME280;59781;52.090;5.030;2023-05-14T09:07:00;101844.28;;;22.45;100.00
71907;BME280;59781;52.090;5.030;2023-05-14T09:09:27;101842.38;;;22.21;100.00
71907;BME280;59781;52.090;5.030;2023-05-14T09:11:53;101837.53;;;22.23;100.00
71907;BME280;59781;52.090;5.030;2023-05-14T09:14:19;101844.13;;;22.15;100.00
71907;BME280;59781;52.090;5.030;2023-05-14T09:16:49;101838.78;;;22.20;100.00
71907;BME280;59781;52.090;5.030;2023-05-14T09:19:17;101832.38;;;22.51;100.00
71907;BME280;59781;52.090;5.030;2023-05-14T09:21:47;101836.13;;;22.57;100.00
71907;BME280;59781;52.090;5.030;2023-05-14T09:24:22;101842.31;;;22.71;100.00
71907;BME280;59781;52.090;5.030;2023-05-14T09:26:51;101832.63;;;22.93;99.06
71907;BME280;59781;52.090;5.030;2023-05-14T09:29:18;101834.84;;;23.03;95.86
71907;BME280;59781;52.090;5.030;2023-05-14T09:31:43;101825.72;;;22.66;95.85
71907;BME280;59781;52.090;5.030;2023-05-14T09:34:10;101815.22;;;23.47;91.97
71907;BME280;59781;52.090;5.030;2023-05-14T09:36:36;101818.66;;;23.43;93.07
71907;BME280;59781;52.090;5.030;2023-05-14T09:39:04;101822.41;;;23.30;90.88
71907;BME280;59781;52.090;5.030;2023-05-14T09:41:30;101823.13;;;23.56;92.88
71907;BME280;59781;52.090;5.030;2023-05-14T09:43:56;101818.06;;;22.68;89.97
71907;BME280;59781;52.090;5.030;2023-05-14T09:46:22;101813.38;;;23.11;91.74
71907;BME280;59781;52.090;5.030;2023-05-14T09:48:49;101807.66;;;22.95;92.76
71907;BME280;59781;52.090;5.030;2023-05-14T09:51:15;101811.84;;;22.97;89.01
71907;BME280;59781;52.090;5.030;2023-05-14T09:53:45;101813.34;;;22.56;93.90
71907;BME280;59781;52.090;5.030;2023-05-14T09:56:11;101805.31;;;23.28;94.80
71907;BME280;59781;52.090;5.030;2023-05-14T09:58:37;101804.59;;;23.81;90.93
71907;BME280;59781;52.090;5.030;2023-05-14T10:01:03;101814.50;;;23.22;92.44
71907;BME280;59781;52.090;5.030;2023-05-14T10:03:31;101808.63;;;23.48;92.12
71907;BME280;59781;52.090;5.030;2023-05-14T10:06:00;101811.81;;;24.06;92.41
71907;BME280;59781;52.090;5.030;2023-05-14T10:08:33;101812.53;;;23.89;92.61
71907;BME280;59781;52.090;5.030;2023-05-14T10:11:15;101801.53;;;24.24;87.50
71907;BME280;59781;52.090;5.030;2023-05-14T10:13:55;101799.28;;;24.10;90.18
71907;BME280;59781;52.090;5.030;2023-05-14T10:16:41;101794.34;;;24.23;86.78
71907;BME280;59781;52.090;5.030;2023-05-14T10:19:11;101791.03;;;24.33;90.00
71907;BME280;59781;52.090;5.030;2023-05-14T10:21:44;101797.63;;;24.44;92.01
71907;BME280;59781;52.090;5.030;2023-05-14T10:24:13;101796.38;;;23.93;90.84
71907;BME280;59781;52.090;5.030;2023-05-14T10:26:41;101798.44;;;24.56;85.22
71907;BME280;59781;52.090;5.030;2023-05-14T10:29:11;101794.03;;;24.55;86.58
71907;BME280;59781;52.090;5.030;2023-05-14T10:31:53;101791.13;;;24.15;83.66
71907;BME280;59781;52.090;5.030;2023-05-14T10:34:37;101800.72;;;22.92;90.36
71907;BME280;59781;52.090;5.030;2023-05-14T10:37:13;101789.28;;;23.85;88.23
71907;BME280;59781;52.090;5.030;2023-05-14T10:42:32;101786.09;;;24.23;79.77
71907;BME280;59781;52.090;5.030;2023-05-14T10:45:03;101784.78;;;24.02;88.05
71907;BME280;59781;52.090;5.030;2023-05-14T10:47:32;101780.78;;;24.92;79.45
71907;BME280;59781;52.090;5.030;2023-05-14T10:50:04;101781.53;;;24.76;83.11
71907;BME280;59781;52.090;5.030;2023-05-14T10:52:32;101786.56;;;24.79;79.20
71907;BME280;59781;52.090;5.030;2023-05-14T10:55:01;101779.66;;;24.53;75.04
71907;BME280;59781;52.090;5.030;2023-05-14T10:57:31;101778.53;;;24.89;77.58
71907;BME280;59781;52.090;5.030;2023-05-14T11:00:01;101781.53;;;24.76;80.04
71907;BME280;59781;52.090;5.030;2023-05-14T11:02:29;101772.94;;;24.02;77.80
71907;BME280;59781;52.090;5.030;2023-05-14T11:05:08;101779.16;;;24.21;77.11
71907;BME280;59781;52.090;5.030;2023-05-14T11:07:47;101778.78;;;23.94;81.85
71907;BME280;59781;52.090;5.030;2023-05-14T11:10:19;101773.66;;;24.21;81.39
71907;BME280;59781;52.090;5.030;2023-05-14T11:12:48;101769.13;;;24.38;81.69
71907;BME280;59781;52.090;5.030;2023-05-14T11:15:18;101762.88;;;24.08;77.39
71907;BME280;59781;52.090;5.030;2023-05-14T11:17:47;101758.72;;;24.40;82.01
71907;BME280;59781;52.090;5.030;2023-05-14T11:20:14;101759.03;;;24.09;76.55
71907;BME280;59781;52.090;5.030;2023-05-14T11:22:44;101762.50;;;23.92;74.54
71907;BME280;59781;52.090;5.030;2023-05-14T11:25:12;101768.22;;;23.49;80.22
71907;BME280;59781;52.090;5.030;2023-05-14T11:27:41;101756.78;;;24.52;75.51
71907;BME280;59781;52.090;5.030;2023-05-14T11:30:13;101753.25;;;23.75;76.12
71907;BME280;59781;52.090;5.030;2023-05-14T11:32:40;101744.78;;;23.77;79.67
71907;BME280;59781;52.090;5.030;2023-05-14T11:35:08;101748.06;;;24.20;79.40
71907;BME280;59781;52.090;5.030;2023-05-14T11:37:34;101740.84;;;24.08;79.75
71907;BME280;59781;52.090;5.030;2023-05-14T11:40:00;101742.41;;;24.03;75.73
71907;BME280;59781;52.090;5.030;2023-05-14T11:42:26;101737.88;;;23.56;74.20
71907;BME280;59781;52.090;5.030;2023-05-14T11:44:52;101728.19;;;24.42;71.16
71907;BME280;59781;52.090;5.030;2023-05-14T11:47:21;101730.09;;;23.94;75.82
71907;BME280;59781;52.090;5.030;2023-05-14T11:49:48;101737.16;;;23.90;78.42
71907;BME280;59781;52.090;5.030;2023-05-14T11:52:15;101730.06;;;23.71;77.15
71907;BME280;59781;52.090;5.030;2023-05-14T11:54:44;101731.28;;;24.45;74.38
71907;BME280;59781;52.090;5.030;2023-05-14T11:57:12;101726.88;;;24.84;73.44
71907;BME280;59781;52.090;5.030;2023-05-14T11:59:39;101726.59;;;25.38;68.18
71907;BME280;59781;52.090;5.030;2023-05-14T12:02:12;101720.81;;;24.71;67.38
71907;BME280;59781;52.090;5.030;2023-05-14T12:04:44;101721.13;;;24.86;65.36
71907;BME280;59781;52.090;5.030;2023-05-14T12:07:16;101719.25;;;25.15;70.12
71907;BME280;59781;52.090;5.030;2023-05-14T12:09:47;101708.06;;;24.53;60.74
71907;BME280;59781;52.090;5.030;2023-05-14T12:12:24;101706.47;;;24.97;66.13
71907;BME280;59781;52.090;5.030;2023-05-14T12:14:49;101707.47;;;24.51;63.92
71907;BME280;59781;52.090;5.030;2023-05-14T12:17:18;101711.16;;;24.56;65.73
71907;BME280;59781;52.090;5.030;2023-05-14T12:19:48;101712.13;;;24.50;62.79
71907;BME280;59781;52.090;5.030;2023-05-14T12:22:19;101703.72;;;24.69;55.12
71907;BME280;59781;52.090;5.030;2023-05-14T12:24:57;101710.94;;;24.23;59.26
71907;BME280;59781;52.090;5.030;2023-05-14T12:27:26;101696.69;;;24.14;63.40
71907;BME280;59781;52.090;5.030;2023-05-14T12:30:03;101700.13;;;24.68;60.80
71907;BME280;59781;52.090;5.030;2023-05-14T12:32:34;101701.44;;;25.06;58.75
71907;BME280;59781;52.090;5.030;2023-05-14T12:35:04;101698.91;;;25.04;62.30
71907;BME280;59781;52.090;5.030;2023-05-14T12:37:31;101703.53;;;25.15;63.66
71907;BME280;59781;52.090;5.030;2023-05-14T12:39:58;101690.56;;;25.28;59.96
71907;BME280;59781;52.090;5.030;2023-05-14T12:42:25;101707.72;;;24.38;59.25
71907;BME280;59781;52.090;5.030;2023-05-14T12:44:51;101694.94;;;24.72;61.02
71907;BME280;59781;52.090;5.030;2023-05-14T12:47:16;101701.78;;;25.09;59.70
71907;BME280;59781;52.090;5.030;2023-05-14T12:49:43;101691.16;;;24.61;65.87
71907;BME280;59781;52.090;5.030;2023-05-14T12:52:09;101682.38;;;25.04;63.26
71907;BME280;59781;52.090;5.030;2023-05-14T12:54:35;101682.22;;;24.42;63.60
71907;BME280;59781;52.090;5.030;2023-05-14T12:57:02;101681.63;;;24.80;64.50
71907;BME280;59781;52.090;5.030;2023-05-14T12:59:28;101686.25;;;24.51;63.28